<?xml version="1.0" encoding="UTF-8" standalone="no" ?>
<gpx xmlns="http://www.topografix.com/GPX/1/1" xmlns:xsi="http://www.w3.org/2001/XMLSchema-instance" xsi:schemaLocation="http://www.topografix.com/GPX/1/1 http://www.topografix.com/GPX/1/1/gpx.xsd" version="1.1" creator="VisuGPX - https://www.visugpx.com">
  <metadata>
    <name>Forêt la palmyre</name>
  </metadata>
  <trk>
    <name><![CDATA[Nouveau parcours]]></name>
    <trkseg>
      <trkpt lat="45.66292" lon="-1.13189">
        <ele>6.2</ele>
        <time>2012-01-25T13:38:41Z</time>
      </trkpt>
      <trkpt lat="45.6628" lon="-1.13203">
        <ele>6.2</ele>
        <time>2012-01-25T13:39:12Z</time>
      </trkpt>
      <trkpt lat="45.66262" lon="-1.13177">
        <ele>6.2</ele>
        <time>2012-01-25T13:39:54Z</time>
      </trkpt>
      <trkpt lat="45.66262" lon="-1.13177">
        <ele>6.1</ele>
        <time>2012-01-25T13:41:36Z</time>
      </trkpt>
      <trkpt lat="45.66257" lon="-1.13146">
        <ele>6.1</ele>
        <time>2012-01-25T13:41:41Z</time>
      </trkpt>
      <trkpt lat="45.66256" lon="-1.13123">
        <ele>6.1</ele>
        <time>2012-01-25T13:42:01Z</time>
      </trkpt>
      <trkpt lat="45.6625" lon="-1.13104">
        <ele>6.1</ele>
        <time>2012-01-25T13:42:17Z</time>
      </trkpt>
      <trkpt lat="45.66249" lon="-1.13094">
        <ele>6.1</ele>
        <time>2012-01-25T13:42:22Z</time>
      </trkpt>
      <trkpt lat="45.66249" lon="-1.13074">
        <ele>6.1</ele>
        <time>2012-01-25T13:42:40Z</time>
      </trkpt>
      <trkpt lat="45.66254" lon="-1.13053">
        <ele>6.1</ele>
        <time>2012-01-25T13:42:55Z</time>
      </trkpt>
      <trkpt lat="45.66254" lon="-1.1304">
        <ele>6</ele>
        <time>2012-01-25T13:43:04Z</time>
      </trkpt>
      <trkpt lat="45.66263" lon="-1.13018">
        <ele>6</ele>
        <time>2012-01-25T13:43:16Z</time>
      </trkpt>
      <trkpt lat="45.66268" lon="-1.13">
        <ele>6</ele>
        <time>2012-01-25T13:43:42Z</time>
      </trkpt>
      <trkpt lat="45.66277" lon="-1.12984">
        <ele>6</ele>
        <time>2012-01-25T13:43:56Z</time>
      </trkpt>
      <trkpt lat="45.66287" lon="-1.12964">
        <ele>6</ele>
        <time>2012-01-25T13:44:11Z</time>
      </trkpt>
      <trkpt lat="45.66298" lon="-1.12945">
        <ele>6</ele>
        <time>2012-01-25T13:44:31Z</time>
      </trkpt>
      <trkpt lat="45.66304" lon="-1.12927">
        <ele>6</ele>
        <time>2012-01-25T13:44:45Z</time>
      </trkpt>
      <trkpt lat="45.66312" lon="-1.12911">
        <ele>6</ele>
        <time>2012-01-25T13:44:55Z</time>
      </trkpt>
      <trkpt lat="45.66322" lon="-1.12893">
        <ele>6</ele>
        <time>2012-01-25T13:45:05Z</time>
      </trkpt>
      <trkpt lat="45.66333" lon="-1.12881">
        <ele>6</ele>
        <time>2012-01-25T13:45:13Z</time>
      </trkpt>
      <trkpt lat="45.66344" lon="-1.12868">
        <ele>5.9</ele>
        <time>2012-01-25T13:45:26Z</time>
      </trkpt>
      <trkpt lat="45.66356" lon="-1.1285">
        <ele>5.9</ele>
        <time>2012-01-25T13:45:40Z</time>
      </trkpt>
      <trkpt lat="45.66363" lon="-1.12834">
        <ele>5.9</ele>
        <time>2012-01-25T13:45:55Z</time>
      </trkpt>
      <trkpt lat="45.66371" lon="-1.12815">
        <ele>5.9</ele>
        <time>2012-01-25T13:46:10Z</time>
      </trkpt>
      <trkpt lat="45.66375" lon="-1.12796">
        <ele>5.9</ele>
        <time>2012-01-25T13:46:26Z</time>
      </trkpt>
      <trkpt lat="45.66381" lon="-1.12778">
        <ele>5.9</ele>
        <time>2012-01-25T13:46:37Z</time>
      </trkpt>
      <trkpt lat="45.66388" lon="-1.12754">
        <ele>5.9</ele>
        <time>2012-01-25T13:46:49Z</time>
      </trkpt>
      <trkpt lat="45.66393" lon="-1.12736">
        <ele>5.9</ele>
        <time>2012-01-25T13:47:04Z</time>
      </trkpt>
      <trkpt lat="45.66406" lon="-1.12722">
        <ele>5.9</ele>
        <time>2012-01-25T13:47:13Z</time>
      </trkpt>
      <trkpt lat="45.66414" lon="-1.12704">
        <ele>5.9</ele>
        <time>2012-01-25T13:47:28Z</time>
      </trkpt>
      <trkpt lat="45.66424" lon="-1.12687">
        <ele>5.9</ele>
        <time>2012-01-25T13:47:41Z</time>
      </trkpt>
      <trkpt lat="45.66434" lon="-1.12672">
        <ele>5.8</ele>
        <time>2012-01-25T13:48:00Z</time>
      </trkpt>
      <trkpt lat="45.66436" lon="-1.12658">
        <ele>5.8</ele>
        <time>2012-01-25T13:48:16Z</time>
      </trkpt>
      <trkpt lat="45.66448" lon="-1.12642">
        <ele>5.8</ele>
        <time>2012-01-25T13:48:28Z</time>
      </trkpt>
      <trkpt lat="45.6646" lon="-1.1263">
        <ele>5.8</ele>
        <time>2012-01-25T13:48:41Z</time>
      </trkpt>
      <trkpt lat="45.66468" lon="-1.12623">
        <ele>5.8</ele>
        <time>2012-01-25T13:48:53Z</time>
      </trkpt>
      <trkpt lat="45.66487" lon="-1.12619">
        <ele>5.8</ele>
        <time>2012-01-25T13:49:05Z</time>
      </trkpt>
      <trkpt lat="45.66501" lon="-1.1261">
        <ele>5.8</ele>
        <time>2012-01-25T13:49:19Z</time>
      </trkpt>
      <trkpt lat="45.66515" lon="-1.12605">
        <ele>5.8</ele>
        <time>2012-01-25T13:49:30Z</time>
      </trkpt>
      <trkpt lat="45.6653" lon="-1.12598">
        <ele>5.8</ele>
        <time>2012-01-25T13:49:42Z</time>
      </trkpt>
      <trkpt lat="45.66542" lon="-1.12586">
        <ele>5.8</ele>
        <time>2012-01-25T13:49:59Z</time>
      </trkpt>
      <trkpt lat="45.66555" lon="-1.12575">
        <ele>5.8</ele>
        <time>2012-01-25T13:50:14Z</time>
      </trkpt>
      <trkpt lat="45.66565" lon="-1.12561">
        <ele>5.7</ele>
        <time>2012-01-25T13:50:33Z</time>
      </trkpt>
      <trkpt lat="45.66574" lon="-1.12545">
        <ele>5.7</ele>
        <time>2012-01-25T13:50:50Z</time>
      </trkpt>
      <trkpt lat="45.66583" lon="-1.12535">
        <ele>5.7</ele>
        <time>2012-01-25T13:50:57Z</time>
      </trkpt>
      <trkpt lat="45.66591" lon="-1.12517">
        <ele>5.7</ele>
        <time>2012-01-25T13:51:07Z</time>
      </trkpt>
      <trkpt lat="45.66598" lon="-1.12501">
        <ele>5.7</ele>
        <time>2012-01-25T13:51:18Z</time>
      </trkpt>
      <trkpt lat="45.66601" lon="-1.12484">
        <ele>5.7</ele>
        <time>2012-01-25T13:51:27Z</time>
      </trkpt>
      <trkpt lat="45.66604" lon="-1.12479">
        <ele>5.7</ele>
        <time>2012-01-25T13:51:34Z</time>
      </trkpt>
      <trkpt lat="45.66619" lon="-1.12476">
        <ele>5.7</ele>
        <time>2012-01-25T13:51:53Z</time>
      </trkpt>
      <trkpt lat="45.66634" lon="-1.12481">
        <ele>5.7</ele>
        <time>2012-01-25T13:52:07Z</time>
      </trkpt>
      <trkpt lat="45.66647" lon="-1.12496">
        <ele>5.7</ele>
        <time>2012-01-25T13:52:18Z</time>
      </trkpt>
      <trkpt lat="45.6666" lon="-1.12507">
        <ele>5.7</ele>
        <time>2012-01-25T13:52:32Z</time>
      </trkpt>
      <trkpt lat="45.66671" lon="-1.12518">
        <ele>5.6</ele>
        <time>2012-01-25T13:52:47Z</time>
      </trkpt>
      <trkpt lat="45.66684" lon="-1.12524">
        <ele>5.6</ele>
        <time>2012-01-25T13:53:18Z</time>
      </trkpt>
      <trkpt lat="45.66695" lon="-1.12505">
        <ele>5.6</ele>
        <time>2012-01-25T13:53:41Z</time>
      </trkpt>
      <trkpt lat="45.66706" lon="-1.1249">
        <ele>5.6</ele>
        <time>2012-01-25T13:53:52Z</time>
      </trkpt>
      <trkpt lat="45.6672" lon="-1.12479">
        <ele>5.6</ele>
        <time>2012-01-25T13:54:04Z</time>
      </trkpt>
      <trkpt lat="45.66735" lon="-1.12479">
        <ele>5.6</ele>
        <time>2012-01-25T13:54:26Z</time>
      </trkpt>
      <trkpt lat="45.66751" lon="-1.12488">
        <ele>5.6</ele>
        <time>2012-01-25T13:54:43Z</time>
      </trkpt>
      <trkpt lat="45.66764" lon="-1.12496">
        <ele>5.6</ele>
        <time>2012-01-25T13:54:56Z</time>
      </trkpt>
      <trkpt lat="45.6678" lon="-1.12507">
        <ele>5.5</ele>
        <time>2012-01-25T13:55:13Z</time>
      </trkpt>
      <trkpt lat="45.66793" lon="-1.12526">
        <ele>5.5</ele>
        <time>2012-01-25T13:55:32Z</time>
      </trkpt>
      <trkpt lat="45.66805" lon="-1.12539">
        <ele>5.5</ele>
        <time>2012-01-25T13:55:48Z</time>
      </trkpt>
      <trkpt lat="45.66812" lon="-1.12548">
        <ele>5.5</ele>
        <time>2012-01-25T13:55:56Z</time>
      </trkpt>
      <trkpt lat="45.66823" lon="-1.12564">
        <ele>5.5</ele>
        <time>2012-01-25T13:56:12Z</time>
      </trkpt>
      <trkpt lat="45.66832" lon="-1.12581">
        <ele>5.5</ele>
        <time>2012-01-25T13:56:27Z</time>
      </trkpt>
      <trkpt lat="45.66842" lon="-1.12601">
        <ele>5.5</ele>
        <time>2012-01-25T13:56:44Z</time>
      </trkpt>
      <trkpt lat="45.66848" lon="-1.12624">
        <ele>5.5</ele>
        <time>2012-01-25T13:56:56Z</time>
      </trkpt>
      <trkpt lat="45.66864" lon="-1.12634">
        <ele>5.5</ele>
        <time>2012-01-25T13:57:11Z</time>
      </trkpt>
      <trkpt lat="45.6688" lon="-1.12644">
        <ele>5.5</ele>
        <time>2012-01-25T13:57:33Z</time>
      </trkpt>
      <trkpt lat="45.66892" lon="-1.12654">
        <ele>5.4</ele>
        <time>2012-01-25T13:57:44Z</time>
      </trkpt>
      <trkpt lat="45.66906" lon="-1.12662">
        <ele>5.4</ele>
        <time>2012-01-25T13:57:56Z</time>
      </trkpt>
      <trkpt lat="45.66919" lon="-1.12673">
        <ele>5.4</ele>
        <time>2012-01-25T13:58:10Z</time>
      </trkpt>
      <trkpt lat="45.66931" lon="-1.1269">
        <ele>5.4</ele>
        <time>2012-01-25T13:58:25Z</time>
      </trkpt>
      <trkpt lat="45.66946" lon="-1.12703">
        <ele>5.4</ele>
        <time>2012-01-25T13:58:40Z</time>
      </trkpt>
      <trkpt lat="45.66966" lon="-1.1271">
        <ele>5.4</ele>
        <time>2012-01-25T13:58:55Z</time>
      </trkpt>
      <trkpt lat="45.66979" lon="-1.12713">
        <ele>5.4</ele>
        <time>2012-01-25T13:59:13Z</time>
      </trkpt>
      <trkpt lat="45.66983" lon="-1.12693">
        <ele>5.4</ele>
        <time>2012-01-25T13:59:27Z</time>
      </trkpt>
      <trkpt lat="45.66983" lon="-1.12683">
        <ele>5.4</ele>
        <time>2012-01-25T13:59:34Z</time>
      </trkpt>
      <trkpt lat="45.66996" lon="-1.12674">
        <ele>5.4</ele>
        <time>2012-01-25T13:59:45Z</time>
      </trkpt>
      <trkpt lat="45.67003" lon="-1.12656">
        <ele>5.4</ele>
        <time>2012-01-25T13:59:57Z</time>
      </trkpt>
      <trkpt lat="45.67007" lon="-1.12629">
        <ele>5.3</ele>
        <time>2012-01-25T14:00:14Z</time>
      </trkpt>
      <trkpt lat="45.67019" lon="-1.12611">
        <ele>5.3</ele>
        <time>2012-01-25T14:00:24Z</time>
      </trkpt>
      <trkpt lat="45.67026" lon="-1.12593">
        <ele>5.3</ele>
        <time>2012-01-25T14:00:42Z</time>
      </trkpt>
      <trkpt lat="45.67037" lon="-1.12586">
        <ele>5.3</ele>
        <time>2012-01-25T14:00:54Z</time>
      </trkpt>
      <trkpt lat="45.67039" lon="-1.12573">
        <ele>5.3</ele>
        <time>2012-01-25T14:01:07Z</time>
      </trkpt>
      <trkpt lat="45.67052" lon="-1.12559">
        <ele>5.3</ele>
        <time>2012-01-25T14:01:20Z</time>
      </trkpt>
      <trkpt lat="45.67079" lon="-1.12548">
        <ele>5.3</ele>
        <time>2012-01-25T14:01:52Z</time>
      </trkpt>
      <trkpt lat="45.67079" lon="-1.12548">
        <ele>5.2</ele>
        <time>2012-01-25T14:04:10Z</time>
      </trkpt>
      <trkpt lat="45.67097" lon="-1.12554">
        <ele>5.2</ele>
        <time>2012-01-25T14:04:11Z</time>
      </trkpt>
      <trkpt lat="45.67106" lon="-1.1257">
        <ele>5.2</ele>
        <time>2012-01-25T14:04:28Z</time>
      </trkpt>
      <trkpt lat="45.67117" lon="-1.12582">
        <ele>5.2</ele>
        <time>2012-01-25T14:04:41Z</time>
      </trkpt>
      <trkpt lat="45.67123" lon="-1.12598">
        <ele>5.2</ele>
        <time>2012-01-25T14:04:51Z</time>
      </trkpt>
      <trkpt lat="45.67134" lon="-1.12608">
        <ele>5.1</ele>
        <time>2012-01-25T14:05:09Z</time>
      </trkpt>
      <trkpt lat="45.67149" lon="-1.12607">
        <ele>5.1</ele>
        <time>2012-01-25T14:05:34Z</time>
      </trkpt>
      <trkpt lat="45.67163" lon="-1.12598">
        <ele>5.1</ele>
        <time>2012-01-25T14:05:48Z</time>
      </trkpt>
      <trkpt lat="45.67177" lon="-1.12593">
        <ele>5.1</ele>
        <time>2012-01-25T14:05:57Z</time>
      </trkpt>
      <trkpt lat="45.67192" lon="-1.12589">
        <ele>5.1</ele>
        <time>2012-01-25T14:06:08Z</time>
      </trkpt>
      <trkpt lat="45.67205" lon="-1.12577">
        <ele>5.1</ele>
        <time>2012-01-25T14:06:20Z</time>
      </trkpt>
      <trkpt lat="45.67216" lon="-1.12572">
        <ele>5.1</ele>
        <time>2012-01-25T14:06:25Z</time>
      </trkpt>
      <trkpt lat="45.67204" lon="-1.12586">
        <ele>5.1</ele>
        <time>2012-01-25T14:06:55Z</time>
      </trkpt>
      <trkpt lat="45.67201" lon="-1.1259">
        <ele>5.1</ele>
        <time>2012-01-25T14:07:03Z</time>
      </trkpt>
      <trkpt lat="45.67215" lon="-1.126">
        <ele>5</ele>
        <time>2012-01-25T14:07:26Z</time>
      </trkpt>
      <trkpt lat="45.67226" lon="-1.12612">
        <ele>5</ele>
        <time>2012-01-25T14:07:42Z</time>
      </trkpt>
      <trkpt lat="45.67241" lon="-1.12618">
        <ele>5</ele>
        <time>2012-01-25T14:07:59Z</time>
      </trkpt>
      <trkpt lat="45.67254" lon="-1.12627">
        <ele>5</ele>
        <time>2012-01-25T14:08:11Z</time>
      </trkpt>
      <trkpt lat="45.67267" lon="-1.12634">
        <ele>5</ele>
        <time>2012-01-25T14:08:33Z</time>
      </trkpt>
      <trkpt lat="45.67282" lon="-1.12641">
        <ele>5</ele>
        <time>2012-01-25T14:08:49Z</time>
      </trkpt>
      <trkpt lat="45.67297" lon="-1.12648">
        <ele>5</ele>
        <time>2012-01-25T14:08:58Z</time>
      </trkpt>
      <trkpt lat="45.67309" lon="-1.12658">
        <ele>5</ele>
        <time>2012-01-25T14:09:11Z</time>
      </trkpt>
      <trkpt lat="45.67323" lon="-1.12669">
        <ele>5</ele>
        <time>2012-01-25T14:09:25Z</time>
      </trkpt>
      <trkpt lat="45.67336" lon="-1.12677">
        <ele>5</ele>
        <time>2012-01-25T14:09:38Z</time>
      </trkpt>
      <trkpt lat="45.67349" lon="-1.12686">
        <ele>4.9</ele>
        <time>2012-01-25T14:09:49Z</time>
      </trkpt>
      <trkpt lat="45.67361" lon="-1.12696">
        <ele>4.9</ele>
        <time>2012-01-25T14:10:02Z</time>
      </trkpt>
      <trkpt lat="45.67372" lon="-1.12709">
        <ele>4.9</ele>
        <time>2012-01-25T14:10:13Z</time>
      </trkpt>
      <trkpt lat="45.67384" lon="-1.12721">
        <ele>4.9</ele>
        <time>2012-01-25T14:10:25Z</time>
      </trkpt>
      <trkpt lat="45.67396" lon="-1.12728">
        <ele>4.9</ele>
        <time>2012-01-25T14:10:36Z</time>
      </trkpt>
      <trkpt lat="45.67409" lon="-1.12736">
        <ele>4.9</ele>
        <time>2012-01-25T14:10:48Z</time>
      </trkpt>
      <trkpt lat="45.67418" lon="-1.12752">
        <ele>4.9</ele>
        <time>2012-01-25T14:11:01Z</time>
      </trkpt>
      <trkpt lat="45.67433" lon="-1.12764">
        <ele>4.9</ele>
        <time>2012-01-25T14:11:16Z</time>
      </trkpt>
      <trkpt lat="45.67446" lon="-1.12773">
        <ele>4.9</ele>
        <time>2012-01-25T14:11:30Z</time>
      </trkpt>
      <trkpt lat="45.67461" lon="-1.12787">
        <ele>4.9</ele>
        <time>2012-01-25T14:11:43Z</time>
      </trkpt>
      <trkpt lat="45.67472" lon="-1.12799">
        <ele>4.9</ele>
        <time>2012-01-25T14:12:00Z</time>
      </trkpt>
      <trkpt lat="45.67486" lon="-1.12806">
        <ele>4.8</ele>
        <time>2012-01-25T14:12:15Z</time>
      </trkpt>
      <trkpt lat="45.675" lon="-1.12818">
        <ele>4.8</ele>
        <time>2012-01-25T14:12:28Z</time>
      </trkpt>
      <trkpt lat="45.67514" lon="-1.12836">
        <ele>4.8</ele>
        <time>2012-01-25T14:12:45Z</time>
      </trkpt>
      <trkpt lat="45.67525" lon="-1.12849">
        <ele>4.8</ele>
        <time>2012-01-25T14:13:01Z</time>
      </trkpt>
      <trkpt lat="45.67535" lon="-1.12863">
        <ele>4.8</ele>
        <time>2012-01-25T14:13:16Z</time>
      </trkpt>
      <trkpt lat="45.67546" lon="-1.12877">
        <ele>4.8</ele>
        <time>2012-01-25T14:13:27Z</time>
      </trkpt>
      <trkpt lat="45.67557" lon="-1.12887">
        <ele>4.8</ele>
        <time>2012-01-25T14:13:45Z</time>
      </trkpt>
      <trkpt lat="45.67571" lon="-1.12894">
        <ele>4.8</ele>
        <time>2012-01-25T14:13:58Z</time>
      </trkpt>
      <trkpt lat="45.67584" lon="-1.12904">
        <ele>4.8</ele>
        <time>2012-01-25T14:14:09Z</time>
      </trkpt>
      <trkpt lat="45.67596" lon="-1.12911">
        <ele>4.8</ele>
        <time>2012-01-25T14:14:20Z</time>
      </trkpt>
      <trkpt lat="45.67609" lon="-1.12922">
        <ele>4.8</ele>
        <time>2012-01-25T14:14:32Z</time>
      </trkpt>
      <trkpt lat="45.67623" lon="-1.12937">
        <ele>4.7</ele>
        <time>2012-01-25T14:14:47Z</time>
      </trkpt>
      <trkpt lat="45.67633" lon="-1.12951">
        <ele>4.7</ele>
        <time>2012-01-25T14:15:05Z</time>
      </trkpt>
      <trkpt lat="45.6764" lon="-1.12961">
        <ele>4.7</ele>
        <time>2012-01-25T14:15:18Z</time>
      </trkpt>
      <trkpt lat="45.67642" lon="-1.12982">
        <ele>4.7</ele>
        <time>2012-01-25T14:15:31Z</time>
      </trkpt>
      <trkpt lat="45.67643" lon="-1.13003">
        <ele>4.7</ele>
        <time>2012-01-25T14:15:45Z</time>
      </trkpt>
      <trkpt lat="45.67639" lon="-1.13024">
        <ele>4.7</ele>
        <time>2012-01-25T14:16:05Z</time>
      </trkpt>
      <trkpt lat="45.67639" lon="-1.13045">
        <ele>4.7</ele>
        <time>2012-01-25T14:16:16Z</time>
      </trkpt>
      <trkpt lat="45.67637" lon="-1.13067">
        <ele>4.7</ele>
        <time>2012-01-25T14:16:29Z</time>
      </trkpt>
      <trkpt lat="45.67636" lon="-1.13087">
        <ele>4.7</ele>
        <time>2012-01-25T14:16:49Z</time>
      </trkpt>
      <trkpt lat="45.67637" lon="-1.13108">
        <ele>4.6</ele>
        <time>2012-01-25T14:17:08Z</time>
      </trkpt>
      <trkpt lat="45.67632" lon="-1.1313">
        <ele>4.6</ele>
        <time>2012-01-25T14:17:26Z</time>
      </trkpt>
      <trkpt lat="45.67629" lon="-1.13152">
        <ele>4.6</ele>
        <time>2012-01-25T14:17:36Z</time>
      </trkpt>
      <trkpt lat="45.67626" lon="-1.13171">
        <ele>4.6</ele>
        <time>2012-01-25T14:17:50Z</time>
      </trkpt>
      <trkpt lat="45.67624" lon="-1.13192">
        <ele>4.6</ele>
        <time>2012-01-25T14:18:07Z</time>
      </trkpt>
      <trkpt lat="45.6762" lon="-1.13214">
        <ele>4.6</ele>
        <time>2012-01-25T14:18:20Z</time>
      </trkpt>
      <trkpt lat="45.67623" lon="-1.13233">
        <ele>4.6</ele>
        <time>2012-01-25T14:18:39Z</time>
      </trkpt>
      <trkpt lat="45.67626" lon="-1.13252">
        <ele>4.6</ele>
        <time>2012-01-25T14:18:48Z</time>
      </trkpt>
      <trkpt lat="45.67634" lon="-1.13274">
        <ele>4.6</ele>
        <time>2012-01-25T14:19:02Z</time>
      </trkpt>
      <trkpt lat="45.67645" lon="-1.13288">
        <ele>4.6</ele>
        <time>2012-01-25T14:19:23Z</time>
      </trkpt>
      <trkpt lat="45.67656" lon="-1.133">
        <ele>4.5</ele>
        <time>2012-01-25T14:19:41Z</time>
      </trkpt>
      <trkpt lat="45.67672" lon="-1.13313">
        <ele>4.5</ele>
        <time>2012-01-25T14:19:52Z</time>
      </trkpt>
      <trkpt lat="45.67685" lon="-1.1332">
        <ele>4.5</ele>
        <time>2012-01-25T14:20:07Z</time>
      </trkpt>
      <trkpt lat="45.67695" lon="-1.13333">
        <ele>4.5</ele>
        <time>2012-01-25T14:20:17Z</time>
      </trkpt>
      <trkpt lat="45.67696" lon="-1.13354">
        <ele>4.5</ele>
        <time>2012-01-25T14:20:23Z</time>
      </trkpt>
      <trkpt lat="45.67698" lon="-1.13374">
        <ele>4.5</ele>
        <time>2012-01-25T14:20:34Z</time>
      </trkpt>
      <trkpt lat="45.67711" lon="-1.13386">
        <ele>4.5</ele>
        <time>2012-01-25T14:20:51Z</time>
      </trkpt>
      <trkpt lat="45.6772" lon="-1.13401">
        <ele>4.5</ele>
        <time>2012-01-25T14:21:10Z</time>
      </trkpt>
      <trkpt lat="45.67737" lon="-1.13412">
        <ele>4.5</ele>
        <time>2012-01-25T14:21:29Z</time>
      </trkpt>
      <trkpt lat="45.6775" lon="-1.13421">
        <ele>4.5</ele>
        <time>2012-01-25T14:21:45Z</time>
      </trkpt>
      <trkpt lat="45.67763" lon="-1.13426">
        <ele>4.5</ele>
        <time>2012-01-25T14:21:58Z</time>
      </trkpt>
      <trkpt lat="45.67778" lon="-1.13426">
        <ele>4.4</ele>
        <time>2012-01-25T14:22:13Z</time>
      </trkpt>
      <trkpt lat="45.67793" lon="-1.13429">
        <ele>4.4</ele>
        <time>2012-01-25T14:22:30Z</time>
      </trkpt>
      <trkpt lat="45.67806" lon="-1.1343">
        <ele>4.4</ele>
        <time>2012-01-25T14:22:42Z</time>
      </trkpt>
      <trkpt lat="45.67821" lon="-1.13431">
        <ele>4.4</ele>
        <time>2012-01-25T14:22:55Z</time>
      </trkpt>
      <trkpt lat="45.67836" lon="-1.13436">
        <ele>4.4</ele>
        <time>2012-01-25T14:23:12Z</time>
      </trkpt>
      <trkpt lat="45.67855" lon="-1.13434">
        <ele>4.4</ele>
        <time>2012-01-25T14:23:30Z</time>
      </trkpt>
      <trkpt lat="45.67886" lon="-1.13441">
        <ele>4.3</ele>
        <time>2012-01-25T14:24:34Z</time>
      </trkpt>
      <trkpt lat="45.67886" lon="-1.13441">
        <ele>4.3</ele>
        <time>2012-01-25T14:25:27Z</time>
      </trkpt>
      <trkpt lat="45.67898" lon="-1.13448">
        <ele>4.3</ele>
        <time>2012-01-25T14:25:34Z</time>
      </trkpt>
      <trkpt lat="45.67914" lon="-1.13457">
        <ele>4.3</ele>
        <time>2012-01-25T14:25:49Z</time>
      </trkpt>
      <trkpt lat="45.67925" lon="-1.13469">
        <ele>4.3</ele>
        <time>2012-01-25T14:26:07Z</time>
      </trkpt>
      <trkpt lat="45.67932" lon="-1.13491">
        <ele>4.3</ele>
        <time>2012-01-25T14:26:22Z</time>
      </trkpt>
      <trkpt lat="45.67934" lon="-1.13511">
        <ele>4.3</ele>
        <time>2012-01-25T14:26:39Z</time>
      </trkpt>
      <trkpt lat="45.6794" lon="-1.13537">
        <ele>4.3</ele>
        <time>2012-01-25T14:26:51Z</time>
      </trkpt>
      <trkpt lat="45.67946" lon="-1.13548">
        <ele>4.2</ele>
        <time>2012-01-25T14:27:04Z</time>
      </trkpt>
      <trkpt lat="45.67951" lon="-1.13569">
        <ele>4.2</ele>
        <time>2012-01-25T14:27:19Z</time>
      </trkpt>
      <trkpt lat="45.67955" lon="-1.13587">
        <ele>4.2</ele>
        <time>2012-01-25T14:27:33Z</time>
      </trkpt>
      <trkpt lat="45.6796" lon="-1.13599">
        <ele>4.2</ele>
        <time>2012-01-25T14:27:41Z</time>
      </trkpt>
      <trkpt lat="45.6796" lon="-1.1362">
        <ele>4.2</ele>
        <time>2012-01-25T14:27:52Z</time>
      </trkpt>
      <trkpt lat="45.67961" lon="-1.13646">
        <ele>4.2</ele>
        <time>2012-01-25T14:28:07Z</time>
      </trkpt>
      <trkpt lat="45.67961" lon="-1.13672">
        <ele>4.2</ele>
        <time>2012-01-25T14:28:22Z</time>
      </trkpt>
      <trkpt lat="45.67966" lon="-1.13691">
        <ele>4.2</ele>
        <time>2012-01-25T14:28:36Z</time>
      </trkpt>
      <trkpt lat="45.67976" lon="-1.1371">
        <ele>4.2</ele>
        <time>2012-01-25T14:28:53Z</time>
      </trkpt>
      <trkpt lat="45.6799" lon="-1.13724">
        <ele>4.2</ele>
        <time>2012-01-25T14:29:10Z</time>
      </trkpt>
      <trkpt lat="45.67999" lon="-1.13739">
        <ele>4.1</ele>
        <time>2012-01-25T14:29:23Z</time>
      </trkpt>
      <trkpt lat="45.68001" lon="-1.13765">
        <ele>4.1</ele>
        <time>2012-01-25T14:29:31Z</time>
      </trkpt>
      <trkpt lat="45.67999" lon="-1.13786">
        <ele>4.1</ele>
        <time>2012-01-25T14:29:38Z</time>
      </trkpt>
      <trkpt lat="45.68001" lon="-1.13805">
        <ele>4.1</ele>
        <time>2012-01-25T14:29:48Z</time>
      </trkpt>
      <trkpt lat="45.68001" lon="-1.1383">
        <ele>4.1</ele>
        <time>2012-01-25T14:29:59Z</time>
      </trkpt>
      <trkpt lat="45.68001" lon="-1.1385">
        <ele>4.1</ele>
        <time>2012-01-25T14:30:16Z</time>
      </trkpt>
      <trkpt lat="45.68008" lon="-1.13874">
        <ele>4.1</ele>
        <time>2012-01-25T14:30:33Z</time>
      </trkpt>
      <trkpt lat="45.68009" lon="-1.13897">
        <ele>4.1</ele>
        <time>2012-01-25T14:30:46Z</time>
      </trkpt>
      <trkpt lat="45.68009" lon="-1.13918">
        <ele>4.1</ele>
        <time>2012-01-25T14:30:58Z</time>
      </trkpt>
      <trkpt lat="45.6801" lon="-1.13939">
        <ele>4.1</ele>
        <time>2012-01-25T14:31:09Z</time>
      </trkpt>
      <trkpt lat="45.68008" lon="-1.13963">
        <ele>4.1</ele>
        <time>2012-01-25T14:31:23Z</time>
      </trkpt>
      <trkpt lat="45.68009" lon="-1.13989">
        <ele>4</ele>
        <time>2012-01-25T14:31:45Z</time>
      </trkpt>
      <trkpt lat="45.68009" lon="-1.14013">
        <ele>4</ele>
        <time>2012-01-25T14:31:57Z</time>
      </trkpt>
      <trkpt lat="45.68008" lon="-1.14035">
        <ele>4</ele>
        <time>2012-01-25T14:32:09Z</time>
      </trkpt>
      <trkpt lat="45.68012" lon="-1.14058">
        <ele>4</ele>
        <time>2012-01-25T14:32:34Z</time>
      </trkpt>
      <trkpt lat="45.68015" lon="-1.14076">
        <ele>4</ele>
        <time>2012-01-25T14:32:43Z</time>
      </trkpt>
      <trkpt lat="45.68019" lon="-1.14086">
        <ele>4</ele>
        <time>2012-01-25T14:33:08Z</time>
      </trkpt>
      <trkpt lat="45.68019" lon="-1.14086">
        <ele>3.8</ele>
        <time>2012-01-25T14:36:50Z</time>
      </trkpt>
      <trkpt lat="45.68026" lon="-1.14079">
        <ele>3.8</ele>
        <time>2012-01-25T14:36:50Z</time>
      </trkpt>
      <trkpt lat="45.68016" lon="-1.141">
        <ele>3.8</ele>
        <time>2012-01-25T14:37:20Z</time>
      </trkpt>
      <trkpt lat="45.68016" lon="-1.141">
        <ele>3.6</ele>
        <time>2012-01-25T14:41:42Z</time>
      </trkpt>
      <trkpt lat="45.68025" lon="-1.14104">
        <ele>3.6</ele>
        <time>2012-01-25T14:41:50Z</time>
      </trkpt>
      <trkpt lat="45.68025" lon="-1.14104">
        <ele>3.5</ele>
        <time>2012-01-25T14:46:09Z</time>
      </trkpt>
      <trkpt lat="45.68032" lon="-1.14096">
        <ele>3.5</ele>
        <time>2012-01-25T14:46:09Z</time>
      </trkpt>
      <trkpt lat="45.68046" lon="-1.14093">
        <ele>3.4</ele>
        <time>2012-01-25T14:46:27Z</time>
      </trkpt>
      <trkpt lat="45.68059" lon="-1.141">
        <ele>3.4</ele>
        <time>2012-01-25T14:46:39Z</time>
      </trkpt>
      <trkpt lat="45.68076" lon="-1.14103">
        <ele>3.4</ele>
        <time>2012-01-25T14:46:53Z</time>
      </trkpt>
      <trkpt lat="45.68089" lon="-1.14108">
        <ele>3.4</ele>
        <time>2012-01-25T14:47:04Z</time>
      </trkpt>
      <trkpt lat="45.68103" lon="-1.14106">
        <ele>3.4</ele>
        <time>2012-01-25T14:47:15Z</time>
      </trkpt>
      <trkpt lat="45.68117" lon="-1.14107">
        <ele>3.4</ele>
        <time>2012-01-25T14:47:29Z</time>
      </trkpt>
      <trkpt lat="45.68131" lon="-1.14108">
        <ele>3.4</ele>
        <time>2012-01-25T14:47:39Z</time>
      </trkpt>
      <trkpt lat="45.68143" lon="-1.1412">
        <ele>3.4</ele>
        <time>2012-01-25T14:47:49Z</time>
      </trkpt>
      <trkpt lat="45.68156" lon="-1.14133">
        <ele>3.4</ele>
        <time>2012-01-25T14:48:06Z</time>
      </trkpt>
      <trkpt lat="45.68165" lon="-1.14148">
        <ele>3.4</ele>
        <time>2012-01-25T14:48:20Z</time>
      </trkpt>
      <trkpt lat="45.68176" lon="-1.14159">
        <ele>3.4</ele>
        <time>2012-01-25T14:48:31Z</time>
      </trkpt>
      <trkpt lat="45.68187" lon="-1.14172">
        <ele>3.4</ele>
        <time>2012-01-25T14:48:45Z</time>
      </trkpt>
      <trkpt lat="45.68195" lon="-1.14187">
        <ele>3.3</ele>
        <time>2012-01-25T14:48:58Z</time>
      </trkpt>
      <trkpt lat="45.68206" lon="-1.14199">
        <ele>3.3</ele>
        <time>2012-01-25T14:49:14Z</time>
      </trkpt>
      <trkpt lat="45.68217" lon="-1.14213">
        <ele>3.3</ele>
        <time>2012-01-25T14:49:28Z</time>
      </trkpt>
      <trkpt lat="45.68231" lon="-1.14219">
        <ele>3.3</ele>
        <time>2012-01-25T14:49:46Z</time>
      </trkpt>
      <trkpt lat="45.68246" lon="-1.14222">
        <ele>3.3</ele>
        <time>2012-01-25T14:50:01Z</time>
      </trkpt>
      <trkpt lat="45.68259" lon="-1.1423">
        <ele>3.3</ele>
        <time>2012-01-25T14:50:14Z</time>
      </trkpt>
      <trkpt lat="45.68271" lon="-1.14241">
        <ele>3.3</ele>
        <time>2012-01-25T14:50:26Z</time>
      </trkpt>
      <trkpt lat="45.68282" lon="-1.14254">
        <ele>3.3</ele>
        <time>2012-01-25T14:50:36Z</time>
      </trkpt>
      <trkpt lat="45.68292" lon="-1.14274">
        <ele>3.3</ele>
        <time>2012-01-25T14:50:53Z</time>
      </trkpt>
      <trkpt lat="45.68304" lon="-1.14284">
        <ele>3.3</ele>
        <time>2012-01-25T14:51:06Z</time>
      </trkpt>
      <trkpt lat="45.68317" lon="-1.14292">
        <ele>3.2</ele>
        <time>2012-01-25T14:51:18Z</time>
      </trkpt>
      <trkpt lat="45.6833" lon="-1.14299">
        <ele>3.2</ele>
        <time>2012-01-25T14:51:31Z</time>
      </trkpt>
      <trkpt lat="45.68343" lon="-1.1432">
        <ele>3.2</ele>
        <time>2012-01-25T14:51:41Z</time>
      </trkpt>
      <trkpt lat="45.68355" lon="-1.14332">
        <ele>3.2</ele>
        <time>2012-01-25T14:51:53Z</time>
      </trkpt>
      <trkpt lat="45.68367" lon="-1.14343">
        <ele>3.2</ele>
        <time>2012-01-25T14:52:08Z</time>
      </trkpt>
      <trkpt lat="45.6838" lon="-1.14354">
        <ele>3.2</ele>
        <time>2012-01-25T14:52:20Z</time>
      </trkpt>
      <trkpt lat="45.68394" lon="-1.14362">
        <ele>3.2</ele>
        <time>2012-01-25T14:52:29Z</time>
      </trkpt>
      <trkpt lat="45.68407" lon="-1.14369">
        <ele>3.2</ele>
        <time>2012-01-25T14:52:45Z</time>
      </trkpt>
      <trkpt lat="45.68419" lon="-1.14378">
        <ele>3.2</ele>
        <time>2012-01-25T14:52:58Z</time>
      </trkpt>
      <trkpt lat="45.68436" lon="-1.14389">
        <ele>3.2</ele>
        <time>2012-01-25T14:53:06Z</time>
      </trkpt>
      <trkpt lat="45.6845" lon="-1.14402">
        <ele>3.2</ele>
        <time>2012-01-25T14:53:21Z</time>
      </trkpt>
      <trkpt lat="45.68465" lon="-1.14409">
        <ele>3.2</ele>
        <time>2012-01-25T14:53:31Z</time>
      </trkpt>
      <trkpt lat="45.68479" lon="-1.14411">
        <ele>3.2</ele>
        <time>2012-01-25T14:53:39Z</time>
      </trkpt>
      <trkpt lat="45.68498" lon="-1.14412">
        <ele>3.1</ele>
        <time>2012-01-25T14:53:50Z</time>
      </trkpt>
      <trkpt lat="45.68512" lon="-1.14411">
        <ele>3.1</ele>
        <time>2012-01-25T14:54:00Z</time>
      </trkpt>
      <trkpt lat="45.68526" lon="-1.14407">
        <ele>3.1</ele>
        <time>2012-01-25T14:54:13Z</time>
      </trkpt>
      <trkpt lat="45.68539" lon="-1.144">
        <ele>3.1</ele>
        <time>2012-01-25T14:54:23Z</time>
      </trkpt>
      <trkpt lat="45.68554" lon="-1.14397">
        <ele>3.1</ele>
        <time>2012-01-25T14:54:37Z</time>
      </trkpt>
      <trkpt lat="45.6857" lon="-1.14397">
        <ele>3.1</ele>
        <time>2012-01-25T14:54:45Z</time>
      </trkpt>
      <trkpt lat="45.68585" lon="-1.14395">
        <ele>3.1</ele>
        <time>2012-01-25T14:54:58Z</time>
      </trkpt>
      <trkpt lat="45.68596" lon="-1.14379">
        <ele>3.1</ele>
        <time>2012-01-25T14:55:09Z</time>
      </trkpt>
      <trkpt lat="45.6861" lon="-1.14362">
        <ele>3.1</ele>
        <time>2012-01-25T14:55:20Z</time>
      </trkpt>
      <trkpt lat="45.68621" lon="-1.14348">
        <ele>3.1</ele>
        <time>2012-01-25T14:55:30Z</time>
      </trkpt>
      <trkpt lat="45.6863" lon="-1.14328">
        <ele>3.1</ele>
        <time>2012-01-25T14:55:48Z</time>
      </trkpt>
      <trkpt lat="45.68641" lon="-1.14315">
        <ele>3.1</ele>
        <time>2012-01-25T14:56:04Z</time>
      </trkpt>
      <trkpt lat="45.68655" lon="-1.1431">
        <ele>3</ele>
        <time>2012-01-25T14:56:12Z</time>
      </trkpt>
      <trkpt lat="45.68671" lon="-1.14298">
        <ele>3</ele>
        <time>2012-01-25T14:56:22Z</time>
      </trkpt>
      <trkpt lat="45.68686" lon="-1.14297">
        <ele>3</ele>
        <time>2012-01-25T14:56:33Z</time>
      </trkpt>
      <trkpt lat="45.687" lon="-1.14297">
        <ele>3</ele>
        <time>2012-01-25T14:56:46Z</time>
      </trkpt>
      <trkpt lat="45.68714" lon="-1.14302">
        <ele>3</ele>
        <time>2012-01-25T14:57:07Z</time>
      </trkpt>
      <trkpt lat="45.68717" lon="-1.14301">
        <ele>3</ele>
        <time>2012-01-25T14:57:13Z</time>
      </trkpt>
      <trkpt lat="45.6872" lon="-1.14307">
        <ele>3</ele>
        <time>2012-01-25T14:57:25Z</time>
      </trkpt>
      <trkpt lat="45.68736" lon="-1.14313">
        <ele>3</ele>
        <time>2012-01-25T14:57:39Z</time>
      </trkpt>
      <trkpt lat="45.68749" lon="-1.14321">
        <ele>3</ele>
        <time>2012-01-25T14:57:50Z</time>
      </trkpt>
      <trkpt lat="45.68762" lon="-1.14328">
        <ele>3</ele>
        <time>2012-01-25T14:57:57Z</time>
      </trkpt>
      <trkpt lat="45.68774" lon="-1.14338">
        <ele>3</ele>
        <time>2012-01-25T14:58:09Z</time>
      </trkpt>
      <trkpt lat="45.68783" lon="-1.14352">
        <ele>3</ele>
        <time>2012-01-25T14:58:19Z</time>
      </trkpt>
      <trkpt lat="45.68786" lon="-1.1438">
        <ele>2.9</ele>
        <time>2012-01-25T14:58:40Z</time>
      </trkpt>
      <trkpt lat="45.68794" lon="-1.14398">
        <ele>2.9</ele>
        <time>2012-01-25T14:58:59Z</time>
      </trkpt>
      <trkpt lat="45.68807" lon="-1.14413">
        <ele>2.9</ele>
        <time>2012-01-25T14:59:14Z</time>
      </trkpt>
      <trkpt lat="45.68819" lon="-1.14421">
        <ele>2.9</ele>
        <time>2012-01-25T14:59:24Z</time>
      </trkpt>
      <trkpt lat="45.68827" lon="-1.14431">
        <ele>2.9</ele>
        <time>2012-01-25T14:59:32Z</time>
      </trkpt>
      <trkpt lat="45.68825" lon="-1.14434">
        <ele>2.9</ele>
        <time>2012-01-25T14:59:37Z</time>
      </trkpt>
      <trkpt lat="45.6884" lon="-1.14437">
        <ele>2.9</ele>
        <time>2012-01-25T14:59:45Z</time>
      </trkpt>
      <trkpt lat="45.6885" lon="-1.14428">
        <ele>2.9</ele>
        <time>2012-01-25T14:59:55Z</time>
      </trkpt>
      <trkpt lat="45.68846" lon="-1.14418">
        <ele>2.9</ele>
        <time>2012-01-25T15:00:00Z</time>
      </trkpt>
      <trkpt lat="45.68832" lon="-1.1441">
        <ele>2.9</ele>
        <time>2012-01-25T15:00:10Z</time>
      </trkpt>
      <trkpt lat="45.68833" lon="-1.14407">
        <ele>2.9</ele>
        <time>2012-01-25T15:00:14Z</time>
      </trkpt>
      <trkpt lat="45.68826" lon="-1.14397">
        <ele>2.9</ele>
        <time>2012-01-25T15:00:24Z</time>
      </trkpt>
      <trkpt lat="45.68758" lon="-1.14382">
        <ele>2.9</ele>
        <time>2012-01-25T15:00:44Z</time>
      </trkpt>
      <trkpt lat="45.68758" lon="-1.14382">
        <ele>2.8</ele>
        <time>2012-01-25T15:02:45Z</time>
      </trkpt>
      <trkpt lat="45.68741" lon="-1.14391">
        <ele>2.8</ele>
        <time>2012-01-25T15:02:57Z</time>
      </trkpt>
      <trkpt lat="45.68727" lon="-1.14406">
        <ele>2.8</ele>
        <time>2012-01-25T15:03:17Z</time>
      </trkpt>
      <trkpt lat="45.68719" lon="-1.14421">
        <ele>2.7</ele>
        <time>2012-01-25T15:03:35Z</time>
      </trkpt>
      <trkpt lat="45.68708" lon="-1.14435">
        <ele>2.7</ele>
        <time>2012-01-25T15:03:52Z</time>
      </trkpt>
      <trkpt lat="45.68698" lon="-1.14448">
        <ele>2.7</ele>
        <time>2012-01-25T15:04:07Z</time>
      </trkpt>
      <trkpt lat="45.68687" lon="-1.14464">
        <ele>2.7</ele>
        <time>2012-01-25T15:04:17Z</time>
      </trkpt>
      <trkpt lat="45.68677" lon="-1.1448">
        <ele>2.7</ele>
        <time>2012-01-25T15:04:33Z</time>
      </trkpt>
      <trkpt lat="45.68665" lon="-1.14493">
        <ele>2.7</ele>
        <time>2012-01-25T15:04:48Z</time>
      </trkpt>
      <trkpt lat="45.68654" lon="-1.14507">
        <ele>2.7</ele>
        <time>2012-01-25T15:05:03Z</time>
      </trkpt>
      <trkpt lat="45.68645" lon="-1.14523">
        <ele>2.7</ele>
        <time>2012-01-25T15:05:15Z</time>
      </trkpt>
      <trkpt lat="45.68632" lon="-1.1454">
        <ele>2.7</ele>
        <time>2012-01-25T15:05:31Z</time>
      </trkpt>
      <trkpt lat="45.68622" lon="-1.14554">
        <ele>2.7</ele>
        <time>2012-01-25T15:05:48Z</time>
      </trkpt>
      <trkpt lat="45.68611" lon="-1.14569">
        <ele>2.6</ele>
        <time>2012-01-25T15:06:02Z</time>
      </trkpt>
      <trkpt lat="45.686" lon="-1.14583">
        <ele>2.6</ele>
        <time>2012-01-25T15:06:10Z</time>
      </trkpt>
      <trkpt lat="45.68591" lon="-1.14598">
        <ele>2.6</ele>
        <time>2012-01-25T15:06:24Z</time>
      </trkpt>
      <trkpt lat="45.6858" lon="-1.14611">
        <ele>2.6</ele>
        <time>2012-01-25T15:06:42Z</time>
      </trkpt>
      <trkpt lat="45.68567" lon="-1.14632">
        <ele>2.6</ele>
        <time>2012-01-25T15:06:54Z</time>
      </trkpt>
      <trkpt lat="45.68555" lon="-1.14652">
        <ele>2.6</ele>
        <time>2012-01-25T15:07:31Z</time>
      </trkpt>
      <trkpt lat="45.68536" lon="-1.14682">
        <ele>2.6</ele>
        <time>2012-01-25T15:07:55Z</time>
      </trkpt>
      <trkpt lat="45.68536" lon="-1.14682">
        <ele>2.5</ele>
        <time>2012-01-25T15:09:09Z</time>
      </trkpt>
      <trkpt lat="45.68526" lon="-1.14696">
        <ele>2.5</ele>
        <time>2012-01-25T15:09:13Z</time>
      </trkpt>
      <trkpt lat="45.68516" lon="-1.14712">
        <ele>2.5</ele>
        <time>2012-01-25T15:09:33Z</time>
      </trkpt>
      <trkpt lat="45.68504" lon="-1.14721">
        <ele>2.5</ele>
        <time>2012-01-25T15:09:48Z</time>
      </trkpt>
      <trkpt lat="45.68492" lon="-1.14735">
        <ele>2.5</ele>
        <time>2012-01-25T15:10:00Z</time>
      </trkpt>
      <trkpt lat="45.68483" lon="-1.14752">
        <ele>2.5</ele>
        <time>2012-01-25T15:10:17Z</time>
      </trkpt>
      <trkpt lat="45.68475" lon="-1.14768">
        <ele>2.5</ele>
        <time>2012-01-25T15:10:30Z</time>
      </trkpt>
      <trkpt lat="45.68464" lon="-1.14783">
        <ele>2.5</ele>
        <time>2012-01-25T15:10:43Z</time>
      </trkpt>
      <trkpt lat="45.68453" lon="-1.14795">
        <ele>2.4</ele>
        <time>2012-01-25T15:10:59Z</time>
      </trkpt>
      <trkpt lat="45.68443" lon="-1.1481">
        <ele>2.4</ele>
        <time>2012-01-25T15:11:16Z</time>
      </trkpt>
      <trkpt lat="45.68433" lon="-1.14822">
        <ele>2.4</ele>
        <time>2012-01-25T15:11:26Z</time>
      </trkpt>
      <trkpt lat="45.68423" lon="-1.14836">
        <ele>2.4</ele>
        <time>2012-01-25T15:11:39Z</time>
      </trkpt>
      <trkpt lat="45.68414" lon="-1.14852">
        <ele>2.4</ele>
        <time>2012-01-25T15:11:55Z</time>
      </trkpt>
      <trkpt lat="45.68404" lon="-1.14868">
        <ele>2.4</ele>
        <time>2012-01-25T15:12:19Z</time>
      </trkpt>
      <trkpt lat="45.68394" lon="-1.14882">
        <ele>2.4</ele>
        <time>2012-01-25T15:12:30Z</time>
      </trkpt>
      <trkpt lat="45.68383" lon="-1.14898">
        <ele>2.4</ele>
        <time>2012-01-25T15:12:44Z</time>
      </trkpt>
      <trkpt lat="45.68373" lon="-1.14913">
        <ele>2.4</ele>
        <time>2012-01-25T15:12:59Z</time>
      </trkpt>
      <trkpt lat="45.68363" lon="-1.14928">
        <ele>2.4</ele>
        <time>2012-01-25T15:13:11Z</time>
      </trkpt>
      <trkpt lat="45.68354" lon="-1.14944">
        <ele>2.3</ele>
        <time>2012-01-25T15:13:22Z</time>
      </trkpt>
      <trkpt lat="45.68331" lon="-1.14972">
        <ele>2.3</ele>
        <time>2012-01-25T15:13:47Z</time>
      </trkpt>
      <trkpt lat="45.68331" lon="-1.14972">
        <ele>2.3</ele>
        <time>2012-01-25T15:15:25Z</time>
      </trkpt>
      <trkpt lat="45.68322" lon="-1.14989">
        <ele>2.3</ele>
        <time>2012-01-25T15:15:34Z</time>
      </trkpt>
      <trkpt lat="45.68312" lon="-1.15008">
        <ele>2.2</ele>
        <time>2012-01-25T15:15:56Z</time>
      </trkpt>
      <trkpt lat="45.68299" lon="-1.15025">
        <ele>2.2</ele>
        <time>2012-01-25T15:16:14Z</time>
      </trkpt>
      <trkpt lat="45.68289" lon="-1.15039">
        <ele>2.2</ele>
        <time>2012-01-25T15:16:32Z</time>
      </trkpt>
      <trkpt lat="45.68278" lon="-1.15052">
        <ele>2.2</ele>
        <time>2012-01-25T15:16:44Z</time>
      </trkpt>
      <trkpt lat="45.68269" lon="-1.15068">
        <ele>2.2</ele>
        <time>2012-01-25T15:16:58Z</time>
      </trkpt>
      <trkpt lat="45.68257" lon="-1.15085">
        <ele>2.2</ele>
        <time>2012-01-25T15:17:15Z</time>
      </trkpt>
      <trkpt lat="45.68245" lon="-1.15102">
        <ele>2.2</ele>
        <time>2012-01-25T15:17:33Z</time>
      </trkpt>
      <trkpt lat="45.68234" lon="-1.15114">
        <ele>2.2</ele>
        <time>2012-01-25T15:17:48Z</time>
      </trkpt>
      <trkpt lat="45.68221" lon="-1.15133">
        <ele>2.2</ele>
        <time>2012-01-25T15:17:59Z</time>
      </trkpt>
      <trkpt lat="45.68214" lon="-1.15151">
        <ele>2.1</ele>
        <time>2012-01-25T15:18:18Z</time>
      </trkpt>
      <trkpt lat="45.68204" lon="-1.15165">
        <ele>2.1</ele>
        <time>2012-01-25T15:18:35Z</time>
      </trkpt>
      <trkpt lat="45.68193" lon="-1.15176">
        <ele>2.1</ele>
        <time>2012-01-25T15:18:48Z</time>
      </trkpt>
      <trkpt lat="45.68178" lon="-1.15191">
        <ele>2.1</ele>
        <time>2012-01-25T15:19:07Z</time>
      </trkpt>
      <trkpt lat="45.68169" lon="-1.15208">
        <ele>2.1</ele>
        <time>2012-01-25T15:19:24Z</time>
      </trkpt>
      <trkpt lat="45.68158" lon="-1.15225">
        <ele>2.1</ele>
        <time>2012-01-25T15:19:41Z</time>
      </trkpt>
      <trkpt lat="45.68148" lon="-1.15241">
        <ele>2.1</ele>
        <time>2012-01-25T15:19:55Z</time>
      </trkpt>
      <trkpt lat="45.68135" lon="-1.15257">
        <ele>2.1</ele>
        <time>2012-01-25T15:20:18Z</time>
      </trkpt>
      <trkpt lat="45.68126" lon="-1.15273">
        <ele>2</ele>
        <time>2012-01-25T15:20:33Z</time>
      </trkpt>
      <trkpt lat="45.68117" lon="-1.15288">
        <ele>2</ele>
        <time>2012-01-25T15:20:47Z</time>
      </trkpt>
      <trkpt lat="45.68104" lon="-1.15305">
        <ele>2</ele>
        <time>2012-01-25T15:20:58Z</time>
      </trkpt>
      <trkpt lat="45.68094" lon="-1.1532">
        <ele>2</ele>
        <time>2012-01-25T15:21:17Z</time>
      </trkpt>
      <trkpt lat="45.68083" lon="-1.15334">
        <ele>2</ele>
        <time>2012-01-25T15:21:31Z</time>
      </trkpt>
      <trkpt lat="45.6807" lon="-1.15348">
        <ele>2</ele>
        <time>2012-01-25T15:21:43Z</time>
      </trkpt>
      <trkpt lat="45.6806" lon="-1.15363">
        <ele>2</ele>
        <time>2012-01-25T15:22:12Z</time>
      </trkpt>
      <trkpt lat="45.6805" lon="-1.15377">
        <ele>2</ele>
        <time>2012-01-25T15:22:30Z</time>
      </trkpt>
      <trkpt lat="45.68041" lon="-1.15392">
        <ele>2</ele>
        <time>2012-01-25T15:22:48Z</time>
      </trkpt>
      <trkpt lat="45.68034" lon="-1.15408">
        <ele>1.9</ele>
        <time>2012-01-25T15:23:00Z</time>
      </trkpt>
      <trkpt lat="45.68024" lon="-1.15423">
        <ele>1.9</ele>
        <time>2012-01-25T15:23:11Z</time>
      </trkpt>
      <trkpt lat="45.68013" lon="-1.1544">
        <ele>1.9</ele>
        <time>2012-01-25T15:23:25Z</time>
      </trkpt>
      <trkpt lat="45.68" lon="-1.15455">
        <ele>1.9</ele>
        <time>2012-01-25T15:23:45Z</time>
      </trkpt>
      <trkpt lat="45.67986" lon="-1.15458">
        <ele>1.9</ele>
        <time>2012-01-25T15:24:12Z</time>
      </trkpt>
      <trkpt lat="45.67975" lon="-1.15438">
        <ele>1.9</ele>
        <time>2012-01-25T15:24:25Z</time>
      </trkpt>
      <trkpt lat="45.67966" lon="-1.15423">
        <ele>1.9</ele>
        <time>2012-01-25T15:24:41Z</time>
      </trkpt>
      <trkpt lat="45.67956" lon="-1.15409">
        <ele>1.9</ele>
        <time>2012-01-25T15:24:53Z</time>
      </trkpt>
      <trkpt lat="45.67943" lon="-1.15401">
        <ele>1.9</ele>
        <time>2012-01-25T15:25:04Z</time>
      </trkpt>
      <trkpt lat="45.67929" lon="-1.15396">
        <ele>1.9</ele>
        <time>2012-01-25T15:25:17Z</time>
      </trkpt>
      <trkpt lat="45.67921" lon="-1.15381">
        <ele>1.8</ele>
        <time>2012-01-25T15:25:33Z</time>
      </trkpt>
      <trkpt lat="45.6791" lon="-1.15368">
        <ele>1.8</ele>
        <time>2012-01-25T15:25:58Z</time>
      </trkpt>
      <trkpt lat="45.67902" lon="-1.15352">
        <ele>1.8</ele>
        <time>2012-01-25T15:26:15Z</time>
      </trkpt>
      <trkpt lat="45.67892" lon="-1.15336">
        <ele>1.8</ele>
        <time>2012-01-25T15:26:31Z</time>
      </trkpt>
      <trkpt lat="45.67881" lon="-1.15323">
        <ele>1.8</ele>
        <time>2012-01-25T15:26:46Z</time>
      </trkpt>
      <trkpt lat="45.6787" lon="-1.15305">
        <ele>1.8</ele>
        <time>2012-01-25T15:26:59Z</time>
      </trkpt>
      <trkpt lat="45.67861" lon="-1.15291">
        <ele>1.8</ele>
        <time>2012-01-25T15:27:19Z</time>
      </trkpt>
      <trkpt lat="45.67849" lon="-1.15301">
        <ele>1.8</ele>
        <time>2012-01-25T15:27:33Z</time>
      </trkpt>
      <trkpt lat="45.67839" lon="-1.15315">
        <ele>1.8</ele>
        <time>2012-01-25T15:27:48Z</time>
      </trkpt>
      <trkpt lat="45.67826" lon="-1.15335">
        <ele>1.7</ele>
        <time>2012-01-25T15:28:02Z</time>
      </trkpt>
      <trkpt lat="45.67816" lon="-1.15348">
        <ele>1.7</ele>
        <time>2012-01-25T15:28:19Z</time>
      </trkpt>
      <trkpt lat="45.67807" lon="-1.15365">
        <ele>1.7</ele>
        <time>2012-01-25T15:28:33Z</time>
      </trkpt>
      <trkpt lat="45.67796" lon="-1.15378">
        <ele>1.7</ele>
        <time>2012-01-25T15:28:44Z</time>
      </trkpt>
      <trkpt lat="45.67787" lon="-1.15395">
        <ele>1.7</ele>
        <time>2012-01-25T15:28:57Z</time>
      </trkpt>
      <trkpt lat="45.67772" lon="-1.15399">
        <ele>1.7</ele>
        <time>2012-01-25T15:29:16Z</time>
      </trkpt>
      <trkpt lat="45.6776" lon="-1.15388">
        <ele>1.7</ele>
        <time>2012-01-25T15:29:33Z</time>
      </trkpt>
      <trkpt lat="45.67749" lon="-1.15372">
        <ele>1.7</ele>
        <time>2012-01-25T15:29:42Z</time>
      </trkpt>
      <trkpt lat="45.67741" lon="-1.15355">
        <ele>1.7</ele>
        <time>2012-01-25T15:29:52Z</time>
      </trkpt>
      <trkpt lat="45.6773" lon="-1.15343">
        <ele>1.7</ele>
        <time>2012-01-25T15:30:05Z</time>
      </trkpt>
      <trkpt lat="45.67719" lon="-1.15326">
        <ele>1.7</ele>
        <time>2012-01-25T15:30:16Z</time>
      </trkpt>
      <trkpt lat="45.67708" lon="-1.15314">
        <ele>1.6</ele>
        <time>2012-01-25T15:30:32Z</time>
      </trkpt>
      <trkpt lat="45.67697" lon="-1.153">
        <ele>1.6</ele>
        <time>2012-01-25T15:30:43Z</time>
      </trkpt>
      <trkpt lat="45.67685" lon="-1.1529">
        <ele>1.6</ele>
        <time>2012-01-25T15:30:57Z</time>
      </trkpt>
      <trkpt lat="45.67674" lon="-1.15275">
        <ele>1.6</ele>
        <time>2012-01-25T15:31:09Z</time>
      </trkpt>
      <trkpt lat="45.67661" lon="-1.15265">
        <ele>1.6</ele>
        <time>2012-01-25T15:31:19Z</time>
      </trkpt>
      <trkpt lat="45.67648" lon="-1.15254">
        <ele>1.6</ele>
        <time>2012-01-25T15:31:32Z</time>
      </trkpt>
      <trkpt lat="45.67636" lon="-1.15243">
        <ele>1.6</ele>
        <time>2012-01-25T15:31:43Z</time>
      </trkpt>
      <trkpt lat="45.67623" lon="-1.15229">
        <ele>1.6</ele>
        <time>2012-01-25T15:31:54Z</time>
      </trkpt>
      <trkpt lat="45.67611" lon="-1.1522">
        <ele>1.6</ele>
        <time>2012-01-25T15:32:08Z</time>
      </trkpt>
      <trkpt lat="45.676" lon="-1.15207">
        <ele>1.6</ele>
        <time>2012-01-25T15:32:19Z</time>
      </trkpt>
      <trkpt lat="45.67587" lon="-1.152">
        <ele>1.6</ele>
        <time>2012-01-25T15:32:31Z</time>
      </trkpt>
      <trkpt lat="45.67576" lon="-1.15187">
        <ele>1.5</ele>
        <time>2012-01-25T15:32:43Z</time>
      </trkpt>
      <trkpt lat="45.67565" lon="-1.15175">
        <ele>1.5</ele>
        <time>2012-01-25T15:32:52Z</time>
      </trkpt>
      <trkpt lat="45.67551" lon="-1.15162">
        <ele>1.5</ele>
        <time>2012-01-25T15:33:03Z</time>
      </trkpt>
      <trkpt lat="45.67538" lon="-1.15153">
        <ele>1.5</ele>
        <time>2012-01-25T15:33:17Z</time>
      </trkpt>
      <trkpt lat="45.67525" lon="-1.15146">
        <ele>1.5</ele>
        <time>2012-01-25T15:33:27Z</time>
      </trkpt>
      <trkpt lat="45.67513" lon="-1.15135">
        <ele>1.5</ele>
        <time>2012-01-25T15:33:38Z</time>
      </trkpt>
      <trkpt lat="45.67501" lon="-1.15122">
        <ele>1.5</ele>
        <time>2012-01-25T15:33:51Z</time>
      </trkpt>
      <trkpt lat="45.67489" lon="-1.15113">
        <ele>1.5</ele>
        <time>2012-01-25T15:34:02Z</time>
      </trkpt>
      <trkpt lat="45.67476" lon="-1.15104">
        <ele>1.5</ele>
        <time>2012-01-25T15:34:14Z</time>
      </trkpt>
      <trkpt lat="45.67464" lon="-1.15092">
        <ele>1.5</ele>
        <time>2012-01-25T15:34:26Z</time>
      </trkpt>
      <trkpt lat="45.6745" lon="-1.15081">
        <ele>1.5</ele>
        <time>2012-01-25T15:34:46Z</time>
      </trkpt>
      <trkpt lat="45.67438" lon="-1.15072">
        <ele>1.5</ele>
        <time>2012-01-25T15:34:59Z</time>
      </trkpt>
      <trkpt lat="45.67426" lon="-1.15063">
        <ele>1.4</ele>
        <time>2012-01-25T15:35:10Z</time>
      </trkpt>
      <trkpt lat="45.67415" lon="-1.15051">
        <ele>1.4</ele>
        <time>2012-01-25T15:35:20Z</time>
      </trkpt>
      <trkpt lat="45.67403" lon="-1.1504">
        <ele>1.4</ele>
        <time>2012-01-25T15:35:33Z</time>
      </trkpt>
      <trkpt lat="45.67392" lon="-1.15029">
        <ele>1.4</ele>
        <time>2012-01-25T15:35:45Z</time>
      </trkpt>
      <trkpt lat="45.6738" lon="-1.15018">
        <ele>1.4</ele>
        <time>2012-01-25T15:35:56Z</time>
      </trkpt>
      <trkpt lat="45.67368" lon="-1.15008">
        <ele>1.4</ele>
        <time>2012-01-25T15:36:08Z</time>
      </trkpt>
      <trkpt lat="45.67357" lon="-1.14996">
        <ele>1.4</ele>
        <time>2012-01-25T15:36:17Z</time>
      </trkpt>
      <trkpt lat="45.67345" lon="-1.14986">
        <ele>1.4</ele>
        <time>2012-01-25T15:36:32Z</time>
      </trkpt>
      <trkpt lat="45.67332" lon="-1.14979">
        <ele>1.4</ele>
        <time>2012-01-25T15:36:42Z</time>
      </trkpt>
      <trkpt lat="45.67319" lon="-1.14967">
        <ele>1.4</ele>
        <time>2012-01-25T15:36:54Z</time>
      </trkpt>
      <trkpt lat="45.67308" lon="-1.14955">
        <ele>1.4</ele>
        <time>2012-01-25T15:37:06Z</time>
      </trkpt>
      <trkpt lat="45.67296" lon="-1.14947">
        <ele>1.4</ele>
        <time>2012-01-25T15:37:19Z</time>
      </trkpt>
      <trkpt lat="45.67283" lon="-1.14936">
        <ele>1.4</ele>
        <time>2012-01-25T15:37:30Z</time>
      </trkpt>
      <trkpt lat="45.6727" lon="-1.14925">
        <ele>1.3</ele>
        <time>2012-01-25T15:37:41Z</time>
      </trkpt>
      <trkpt lat="45.67256" lon="-1.14912">
        <ele>1.3</ele>
        <time>2012-01-25T15:37:53Z</time>
      </trkpt>
      <trkpt lat="45.67241" lon="-1.14901">
        <ele>1.3</ele>
        <time>2012-01-25T15:38:08Z</time>
      </trkpt>
      <trkpt lat="45.67228" lon="-1.14889">
        <ele>1.3</ele>
        <time>2012-01-25T15:38:19Z</time>
      </trkpt>
      <trkpt lat="45.67215" lon="-1.14874">
        <ele>1.3</ele>
        <time>2012-01-25T15:38:33Z</time>
      </trkpt>
      <trkpt lat="45.67201" lon="-1.14868">
        <ele>1.3</ele>
        <time>2012-01-25T15:38:49Z</time>
      </trkpt>
      <trkpt lat="45.67189" lon="-1.14857">
        <ele>1.3</ele>
        <time>2012-01-25T15:38:59Z</time>
      </trkpt>
      <trkpt lat="45.67178" lon="-1.14843">
        <ele>1.3</ele>
        <time>2012-01-25T15:39:10Z</time>
      </trkpt>
      <trkpt lat="45.67165" lon="-1.14835">
        <ele>1.3</ele>
        <time>2012-01-25T15:39:26Z</time>
      </trkpt>
      <trkpt lat="45.67149" lon="-1.14822">
        <ele>1.3</ele>
        <time>2012-01-25T15:39:42Z</time>
      </trkpt>
      <trkpt lat="45.67133" lon="-1.14808">
        <ele>1.3</ele>
        <time>2012-01-25T15:39:55Z</time>
      </trkpt>
      <trkpt lat="45.67121" lon="-1.14796">
        <ele>1.2</ele>
        <time>2012-01-25T15:40:10Z</time>
      </trkpt>
      <trkpt lat="45.67109" lon="-1.14786">
        <ele>1.2</ele>
        <time>2012-01-25T15:40:22Z</time>
      </trkpt>
      <trkpt lat="45.67097" lon="-1.14773">
        <ele>1.2</ele>
        <time>2012-01-25T15:40:32Z</time>
      </trkpt>
      <trkpt lat="45.67083" lon="-1.1476">
        <ele>1.2</ele>
        <time>2012-01-25T15:40:44Z</time>
      </trkpt>
      <trkpt lat="45.67071" lon="-1.14751">
        <ele>1.2</ele>
        <time>2012-01-25T15:40:58Z</time>
      </trkpt>
      <trkpt lat="45.67059" lon="-1.14742">
        <ele>1.2</ele>
        <time>2012-01-25T15:41:11Z</time>
      </trkpt>
      <trkpt lat="45.67046" lon="-1.14727">
        <ele>1.2</ele>
        <time>2012-01-25T15:41:21Z</time>
      </trkpt>
      <trkpt lat="45.6703" lon="-1.14716">
        <ele>1.2</ele>
        <time>2012-01-25T15:41:34Z</time>
      </trkpt>
      <trkpt lat="45.67014" lon="-1.14706">
        <ele>1.2</ele>
        <time>2012-01-25T15:41:50Z</time>
      </trkpt>
      <trkpt lat="45.67" lon="-1.14691">
        <ele>1.2</ele>
        <time>2012-01-25T15:42:03Z</time>
      </trkpt>
      <trkpt lat="45.66988" lon="-1.1468">
        <ele>1.2</ele>
        <time>2012-01-25T15:42:19Z</time>
      </trkpt>
      <trkpt lat="45.66976" lon="-1.14672">
        <ele>1.1</ele>
        <time>2012-01-25T15:42:30Z</time>
      </trkpt>
      <trkpt lat="45.6696" lon="-1.14656">
        <ele>1.1</ele>
        <time>2012-01-25T15:42:42Z</time>
      </trkpt>
      <trkpt lat="45.66947" lon="-1.14644">
        <ele>1.1</ele>
        <time>2012-01-25T15:42:57Z</time>
      </trkpt>
      <trkpt lat="45.66935" lon="-1.14633">
        <ele>1.1</ele>
        <time>2012-01-25T15:43:09Z</time>
      </trkpt>
      <trkpt lat="45.66923" lon="-1.14622">
        <ele>1.1</ele>
        <time>2012-01-25T15:43:18Z</time>
      </trkpt>
      <trkpt lat="45.66911" lon="-1.14613">
        <ele>1.1</ele>
        <time>2012-01-25T15:43:30Z</time>
      </trkpt>
      <trkpt lat="45.669" lon="-1.146">
        <ele>1.1</ele>
        <time>2012-01-25T15:43:40Z</time>
      </trkpt>
      <trkpt lat="45.66886" lon="-1.1459">
        <ele>1.1</ele>
        <time>2012-01-25T15:43:52Z</time>
      </trkpt>
      <trkpt lat="45.66869" lon="-1.14579">
        <ele>1.1</ele>
        <time>2012-01-25T15:44:04Z</time>
      </trkpt>
      <trkpt lat="45.66858" lon="-1.14566">
        <ele>1.1</ele>
        <time>2012-01-25T15:44:19Z</time>
      </trkpt>
      <trkpt lat="45.66844" lon="-1.14556">
        <ele>1.1</ele>
        <time>2012-01-25T15:44:32Z</time>
      </trkpt>
      <trkpt lat="45.66832" lon="-1.14543">
        <ele>1.1</ele>
        <time>2012-01-25T15:44:43Z</time>
      </trkpt>
      <trkpt lat="45.66817" lon="-1.14542">
        <ele>1</ele>
        <time>2012-01-25T15:44:55Z</time>
      </trkpt>
      <trkpt lat="45.66804" lon="-1.14535">
        <ele>1</ele>
        <time>2012-01-25T15:45:09Z</time>
      </trkpt>
      <trkpt lat="45.66793" lon="-1.14522">
        <ele>1</ele>
        <time>2012-01-25T15:45:21Z</time>
      </trkpt>
      <trkpt lat="45.66783" lon="-1.14508">
        <ele>1</ele>
        <time>2012-01-25T15:45:30Z</time>
      </trkpt>
      <trkpt lat="45.66771" lon="-1.14494">
        <ele>1</ele>
        <time>2012-01-25T15:45:42Z</time>
      </trkpt>
      <trkpt lat="45.66757" lon="-1.14485">
        <ele>1</ele>
        <time>2012-01-25T15:45:55Z</time>
      </trkpt>
      <trkpt lat="45.66745" lon="-1.14474">
        <ele>1</ele>
        <time>2012-01-25T15:46:08Z</time>
      </trkpt>
      <trkpt lat="45.66731" lon="-1.1446">
        <ele>1</ele>
        <time>2012-01-25T15:46:18Z</time>
      </trkpt>
      <trkpt lat="45.66716" lon="-1.14449">
        <ele>1</ele>
        <time>2012-01-25T15:46:32Z</time>
      </trkpt>
      <trkpt lat="45.66705" lon="-1.14435">
        <ele>1</ele>
        <time>2012-01-25T15:46:47Z</time>
      </trkpt>
      <trkpt lat="45.66692" lon="-1.1443">
        <ele>1</ele>
        <time>2012-01-25T15:46:59Z</time>
      </trkpt>
      <trkpt lat="45.6668" lon="-1.14419">
        <ele>1</ele>
        <time>2012-01-25T15:47:10Z</time>
      </trkpt>
      <trkpt lat="45.66669" lon="-1.14407">
        <ele>0.9</ele>
        <time>2012-01-25T15:47:22Z</time>
      </trkpt>
      <trkpt lat="45.66658" lon="-1.14394">
        <ele>0.9</ele>
        <time>2012-01-25T15:47:33Z</time>
      </trkpt>
      <trkpt lat="45.66645" lon="-1.14387">
        <ele>0.9</ele>
        <time>2012-01-25T15:47:44Z</time>
      </trkpt>
      <trkpt lat="45.66633" lon="-1.14377">
        <ele>0.9</ele>
        <time>2012-01-25T15:47:54Z</time>
      </trkpt>
      <trkpt lat="45.66621" lon="-1.14367">
        <ele>0.9</ele>
        <time>2012-01-25T15:48:05Z</time>
      </trkpt>
      <trkpt lat="45.66609" lon="-1.14356">
        <ele>0.9</ele>
        <time>2012-01-25T15:48:15Z</time>
      </trkpt>
      <trkpt lat="45.66599" lon="-1.14343">
        <ele>0.9</ele>
        <time>2012-01-25T15:48:24Z</time>
      </trkpt>
      <trkpt lat="45.66587" lon="-1.14332">
        <ele>0.9</ele>
        <time>2012-01-25T15:48:34Z</time>
      </trkpt>
      <trkpt lat="45.66573" lon="-1.14325">
        <ele>0.9</ele>
        <time>2012-01-25T15:48:47Z</time>
      </trkpt>
      <trkpt lat="45.66562" lon="-1.14312">
        <ele>0.9</ele>
        <time>2012-01-25T15:49:01Z</time>
      </trkpt>
      <trkpt lat="45.6655" lon="-1.14301">
        <ele>0.9</ele>
        <time>2012-01-25T15:49:13Z</time>
      </trkpt>
      <trkpt lat="45.66536" lon="-1.14281">
        <ele>0.9</ele>
        <time>2012-01-25T15:49:34Z</time>
      </trkpt>
      <trkpt lat="45.66536" lon="-1.14281">
        <ele>0.7</ele>
        <time>2012-01-25T15:53:46Z</time>
      </trkpt>
      <trkpt lat="45.66536" lon="-1.14263">
        <ele>0.7</ele>
        <time>2012-01-25T15:53:51Z</time>
      </trkpt>
      <trkpt lat="45.66536" lon="-1.14242">
        <ele>0.7</ele>
        <time>2012-01-25T15:54:06Z</time>
      </trkpt>
      <trkpt lat="45.66537" lon="-1.14217">
        <ele>0.7</ele>
        <time>2012-01-25T15:54:17Z</time>
      </trkpt>
      <trkpt lat="45.66533" lon="-1.14198">
        <ele>0.7</ele>
        <time>2012-01-25T15:54:29Z</time>
      </trkpt>
      <trkpt lat="45.6653" lon="-1.14173">
        <ele>0.6</ele>
        <time>2012-01-25T15:54:42Z</time>
      </trkpt>
      <trkpt lat="45.66526" lon="-1.14154">
        <ele>0.6</ele>
        <time>2012-01-25T15:54:59Z</time>
      </trkpt>
      <trkpt lat="45.66517" lon="-1.14138">
        <ele>0.6</ele>
        <time>2012-01-25T15:55:12Z</time>
      </trkpt>
      <trkpt lat="45.66508" lon="-1.14122">
        <ele>0.6</ele>
        <time>2012-01-25T15:55:25Z</time>
      </trkpt>
      <trkpt lat="45.66497" lon="-1.1411">
        <ele>0.6</ele>
        <time>2012-01-25T15:55:39Z</time>
      </trkpt>
      <trkpt lat="45.66484" lon="-1.14103">
        <ele>0.6</ele>
        <time>2012-01-25T15:55:51Z</time>
      </trkpt>
      <trkpt lat="45.66472" lon="-1.14093">
        <ele>0.6</ele>
        <time>2012-01-25T15:56:00Z</time>
      </trkpt>
      <trkpt lat="45.6646" lon="-1.14081">
        <ele>0.6</ele>
        <time>2012-01-25T15:56:08Z</time>
      </trkpt>
      <trkpt lat="45.66449" lon="-1.14069">
        <ele>0.6</ele>
        <time>2012-01-25T15:56:19Z</time>
      </trkpt>
      <trkpt lat="45.66438" lon="-1.14057">
        <ele>0.6</ele>
        <time>2012-01-25T15:56:31Z</time>
      </trkpt>
      <trkpt lat="45.66429" lon="-1.1404">
        <ele>0.6</ele>
        <time>2012-01-25T15:56:42Z</time>
      </trkpt>
      <trkpt lat="45.66419" lon="-1.14025">
        <ele>0.6</ele>
        <time>2012-01-25T15:56:55Z</time>
      </trkpt>
      <trkpt lat="45.6641" lon="-1.14003">
        <ele>0.6</ele>
        <time>2012-01-25T15:57:06Z</time>
      </trkpt>
      <trkpt lat="45.66401" lon="-1.13989">
        <ele>0.5</ele>
        <time>2012-01-25T15:57:20Z</time>
      </trkpt>
      <trkpt lat="45.66391" lon="-1.13972">
        <ele>0.5</ele>
        <time>2012-01-25T15:57:30Z</time>
      </trkpt>
      <trkpt lat="45.66381" lon="-1.13957">
        <ele>0.5</ele>
        <time>2012-01-25T15:57:43Z</time>
      </trkpt>
      <trkpt lat="45.66375" lon="-1.13938">
        <ele>0.5</ele>
        <time>2012-01-25T15:57:55Z</time>
      </trkpt>
      <trkpt lat="45.66372" lon="-1.13918">
        <ele>0.5</ele>
        <time>2012-01-25T15:58:08Z</time>
      </trkpt>
      <trkpt lat="45.66371" lon="-1.13893">
        <ele>0.5</ele>
        <time>2012-01-25T15:58:20Z</time>
      </trkpt>
      <trkpt lat="45.66371" lon="-1.13871">
        <ele>0.5</ele>
        <time>2012-01-25T15:58:34Z</time>
      </trkpt>
      <trkpt lat="45.66367" lon="-1.13853">
        <ele>0.5</ele>
        <time>2012-01-25T15:58:46Z</time>
      </trkpt>
      <trkpt lat="45.66357" lon="-1.13838">
        <ele>0.5</ele>
        <time>2012-01-25T15:58:57Z</time>
      </trkpt>
      <trkpt lat="45.66349" lon="-1.13822">
        <ele>0.5</ele>
        <time>2012-01-25T15:59:06Z</time>
      </trkpt>
      <trkpt lat="45.6634" lon="-1.13804">
        <ele>0.5</ele>
        <time>2012-01-25T15:59:17Z</time>
      </trkpt>
      <trkpt lat="45.66329" lon="-1.1379">
        <ele>0.5</ele>
        <time>2012-01-25T15:59:27Z</time>
      </trkpt>
      <trkpt lat="45.66316" lon="-1.13776">
        <ele>0.4</ele>
        <time>2012-01-25T15:59:41Z</time>
      </trkpt>
      <trkpt lat="45.66306" lon="-1.13761">
        <ele>0.4</ele>
        <time>2012-01-25T15:59:53Z</time>
      </trkpt>
      <trkpt lat="45.66297" lon="-1.13746">
        <ele>0.4</ele>
        <time>2012-01-25T16:00:09Z</time>
      </trkpt>
      <trkpt lat="45.66287" lon="-1.1373">
        <ele>0.4</ele>
        <time>2012-01-25T16:00:16Z</time>
      </trkpt>
      <trkpt lat="45.66275" lon="-1.13714">
        <ele>0.4</ele>
        <time>2012-01-25T16:00:28Z</time>
      </trkpt>
      <trkpt lat="45.66265" lon="-1.13701">
        <ele>0.4</ele>
        <time>2012-01-25T16:00:41Z</time>
      </trkpt>
      <trkpt lat="45.66256" lon="-1.13687">
        <ele>0.4</ele>
        <time>2012-01-25T16:00:52Z</time>
      </trkpt>
      <trkpt lat="45.66246" lon="-1.1367">
        <ele>0.4</ele>
        <time>2012-01-25T16:01:02Z</time>
      </trkpt>
      <trkpt lat="45.66236" lon="-1.13657">
        <ele>0.4</ele>
        <time>2012-01-25T16:01:14Z</time>
      </trkpt>
      <trkpt lat="45.66226" lon="-1.13642">
        <ele>0.4</ele>
        <time>2012-01-25T16:01:26Z</time>
      </trkpt>
      <trkpt lat="45.66212" lon="-1.13626">
        <ele>0.4</ele>
        <time>2012-01-25T16:01:38Z</time>
      </trkpt>
      <trkpt lat="45.66199" lon="-1.13612">
        <ele>0.4</ele>
        <time>2012-01-25T16:01:53Z</time>
      </trkpt>
      <trkpt lat="45.66194" lon="-1.13592">
        <ele>0.3</ele>
        <time>2012-01-25T16:02:07Z</time>
      </trkpt>
      <trkpt lat="45.66195" lon="-1.13571">
        <ele>0.3</ele>
        <time>2012-01-25T16:02:19Z</time>
      </trkpt>
      <trkpt lat="45.66197" lon="-1.1355">
        <ele>0.3</ele>
        <time>2012-01-25T16:02:30Z</time>
      </trkpt>
      <trkpt lat="45.66199" lon="-1.13531">
        <ele>0.3</ele>
        <time>2012-01-25T16:02:42Z</time>
      </trkpt>
      <trkpt lat="45.66198" lon="-1.13511">
        <ele>0.3</ele>
        <time>2012-01-25T16:02:52Z</time>
      </trkpt>
      <trkpt lat="45.66198" lon="-1.13491">
        <ele>0.3</ele>
        <time>2012-01-25T16:03:05Z</time>
      </trkpt>
      <trkpt lat="45.66199" lon="-1.1347">
        <ele>0.3</ele>
        <time>2012-01-25T16:03:15Z</time>
      </trkpt>
      <trkpt lat="45.66197" lon="-1.1345">
        <ele>0.3</ele>
        <time>2012-01-25T16:03:26Z</time>
      </trkpt>
      <trkpt lat="45.66196" lon="-1.1343">
        <ele>0.3</ele>
        <time>2012-01-25T16:03:38Z</time>
      </trkpt>
      <trkpt lat="45.66197" lon="-1.13418">
        <ele>0.3</ele>
        <time>2012-01-25T16:03:51Z</time>
      </trkpt>
      <trkpt lat="45.66212" lon="-1.1342">
        <ele>0.3</ele>
        <time>2012-01-25T16:04:06Z</time>
      </trkpt>
      <trkpt lat="45.66225" lon="-1.13411">
        <ele>0.2</ele>
        <time>2012-01-25T16:04:29Z</time>
      </trkpt>
      <trkpt lat="45.66238" lon="-1.13402">
        <ele>0.2</ele>
        <time>2012-01-25T16:04:44Z</time>
      </trkpt>
      <trkpt lat="45.66252" lon="-1.13399">
        <ele>0.2</ele>
        <time>2012-01-25T16:04:56Z</time>
      </trkpt>
      <trkpt lat="45.66265" lon="-1.13391">
        <ele>0.2</ele>
        <time>2012-01-25T16:05:10Z</time>
      </trkpt>
      <trkpt lat="45.66274" lon="-1.13394">
        <ele>0.2</ele>
        <time>2012-01-25T16:05:21Z</time>
      </trkpt>
      <trkpt lat="45.66281" lon="-1.13369">
        <ele>0.2</ele>
        <time>2012-01-25T16:05:30Z</time>
      </trkpt>
      <trkpt lat="45.66292" lon="-1.13355">
        <ele>0.2</ele>
        <time>2012-01-25T16:05:41Z</time>
      </trkpt>
      <trkpt lat="45.66305" lon="-1.13339">
        <ele>0.2</ele>
        <time>2012-01-25T16:05:55Z</time>
      </trkpt>
      <trkpt lat="45.66315" lon="-1.13324">
        <ele>0.2</ele>
        <time>2012-01-25T16:06:13Z</time>
      </trkpt>
      <trkpt lat="45.66322" lon="-1.13313">
        <ele>0.2</ele>
        <time>2012-01-25T16:06:21Z</time>
      </trkpt>
      <trkpt lat="45.66338" lon="-1.1331">
        <ele>0.2</ele>
        <time>2012-01-25T16:06:33Z</time>
      </trkpt>
      <trkpt lat="45.66349" lon="-1.13292">
        <ele>0.2</ele>
        <time>2012-01-25T16:06:44Z</time>
      </trkpt>
      <trkpt lat="45.66355" lon="-1.13274">
        <ele>0.1</ele>
        <time>2012-01-25T16:06:58Z</time>
      </trkpt>
      <trkpt lat="45.66354" lon="-1.13254">
        <ele>0.1</ele>
        <time>2012-01-25T16:07:13Z</time>
      </trkpt>
      <trkpt lat="45.66355" lon="-1.13233">
        <ele>0.1</ele>
        <time>2012-01-25T16:07:21Z</time>
      </trkpt>
      <trkpt lat="45.66363" lon="-1.13224">
        <ele>0.1</ele>
        <time>2012-01-25T16:07:34Z</time>
      </trkpt>
      <trkpt lat="45.66363" lon="-1.13224">
        <ele>0.1</ele>
        <time>2012-01-25T16:08:55Z</time>
      </trkpt>
      <trkpt lat="45.66359" lon="-1.13222">
        <ele>0.1</ele>
        <time>2012-01-25T16:08:58Z</time>
      </trkpt>
      <trkpt lat="45.66344" lon="-1.13224">
        <ele>0.1</ele>
        <time>2012-01-25T16:09:15Z</time>
      </trkpt>
      <trkpt lat="45.6633" lon="-1.13221">
        <ele>6.8</ele>
        <time>2012-01-25T16:09:27Z</time>
      </trkpt>
      <trkpt lat="45.66316" lon="-1.13216">
        <ele>5.9</ele>
        <time>2012-01-25T16:09:42Z</time>
      </trkpt>
      <trkpt lat="45.66305" lon="-1.13203">
        <ele>5.7</ele>
        <time>2012-01-25T16:09:56Z</time>
      </trkpt>
      <trkpt lat="45.66292" lon="-1.13195">
        <ele>6.5</ele>
        <time>2012-01-25T16:10:04Z</time>
      </trkpt>
      <trkpt lat="45.66279" lon="-1.13201">
        <ele>6.7</ele>
        <time>2012-01-25T16:10:21Z</time>
      </trkpt>
      <trkpt lat="45.66275" lon="-1.13203">
        <ele>7</ele>
        <time>2012-01-25T16:10:32Z</time>
      </trkpt>
      <trkpt lat="45.66275" lon="-1.13203">
        <ele>7</ele>
        <time>2012-01-25T16:10:32Z</time>
      </trkpt>
    </trkseg>
  </trk>
</gpx>